Time;durP1;ratioP1;P1;durP2;ratioP2;P2;SDS_P1;SDS_P2;PMS_P1;PMS_P2;Temp;Humidity;BMP_temperature;BMP_pressure;BME280_temperature;BME280_humidity;BME280_pressure;Samples;Min_cycle;Max_cycle;Signal;HPM_P1;HPM_P2
2022/12/05 00:00:48;;;;;;;;;;;;;;;;;;5031488;28;19922;-94
2022/12/05 00:03:14;;;;;;;;;;;;;;;;;;5031880;28;19940;-94
2022/12/05 00:05:40;;;;;;;;;;;;;;;;;;5031678;28;19925;-93
2022/12/05 00:08:07;;;;;;;;;;;;;;;;;;5031584;28;19925;-95
2022/12/05 00:10:33;;;;;;;;;;;;;;;;;;5031840;28;19971;-95
2022/12/05 00:12:59;;;;;;;;;;;;;;;;;;5033708;28;19929;-94
2022/12/05 00:15:25;;;;;;;;;;;;;;;;;;5034812;28;19927;-94
2022/12/05 00:17:52;;;;;;;;;;;;;;;;;;5034920;28;20023;-94
2022/12/05 00:20:17;;;;;;;;;;;;;;;;;;5034318;28;19971;-94
2022/12/05 00:22:43;;;;;;;;;;;;;;;;;;5035055;28;19920;-95
2022/12/05 00:25:09;;;;;;;;;;;;;;;;;;5034960;28;20284;-94
2022/12/05 00:27:35;;;;;;;;;;;;;;;;;;5035376;28;19994;-95
2022/12/05 00:30:01;;;;;;;;;;;;;;;;;;5034680;28;20015;-95
2022/12/05 00:32:27;;;;;;;;;;;;;;;;;;5034732;28;19943;-96
2022/12/05 00:34:53;;;;;;;;;;;;;;;;;;5034679;28;20019;-95
2022/12/05 00:37:19;;;;;;;;;;;;;;;;;;5035025;28;19924;-94
2022/12/05 00:39:45;;;;;;;;;;;;;;;;;;5035054;28;19927;-95
2022/12/05 00:42:11;;;;;;;;;;;;;;;;;;5035061;28;20309;-96
2022/12/05 00:44:37;;;;;;;;;;;;;;;;;;5034418;28;19920;-94
2022/12/05 00:47:03;;;;;;;;;;;;;;;;;;5034482;28;20011;-95
2022/12/05 00:49:29;;;;;;;;;;;;;;;;;;5034222;28;19964;-94
2022/12/05 00:51:55;;;;;;;;;;;;;;;;;;5034217;28;19972;-93
2022/12/05 00:54:21;;;;;;;;;;;;;;;;;;5034520;28;20287;-93
2022/12/05 00:56:47;;;;;;;;;;;;;;;;;;5037886;28;19927;-93
2022/12/05 00:59:13;;;;;;;;;;;;;;;;;;5038346;28;19921;-93
2022/12/05 01:01:39;;;;;;;;;;;;;;;;;;5037867;28;19920;-94
2022/12/05 01:04:04;;;;;;;;;;;;;;;;;;5038105;28;19921;-94
2022/12/05 01:06:32;;;;;;;;;;;;;;;;;;5038301;28;19921;-94
2022/12/05 01:08:58;;;;;;;;;;;;;;;;;;5038287;28;19920;-94
2022/12/05 01:11:27;;;;;;;;;;;;;;;;;;5038112;28;19925;-93
2022/12/05 01:13:53;;;;;;;;;;;;;;;;;;5034713;28;19925;-94
2022/12/05 01:16:21;;;;;;;;;;;;;;;;;;5034820;28;19933;-93
2022/12/05 01:18:47;;;;;;;;;;;;;;;;;;5034783;28;20378;-93
2022/12/05 01:21:13;;;;;;;;;;;;;;;;;;5034652;28;20041;-94
2022/12/05 01:23:39;;;;;;;;;;;;;;;;;;5034325;28;19921;-94
2022/12/05 01:26:05;;;;;;;;;;;;;;;;;;5034326;28;19928;-94
2022/12/05 01:28:31;;;;;;;;;;;;;;;;;;5034429;28;19921;-93
2022/12/05 01:30:57;;;;;;;;;;;;;;;;;;5034107;28;19932;-94
2022/12/05 01:33:23;;;;;;;;;;;;;;;;;;5034086;28;20067;-94
2022/12/05 01:35:49;;;;;;;;;;;;;;;;;;5034564;28;19928;-94
2022/12/05 01:38:14;;;;;;;;;;;;;;;;;;5033949;28;20027;-94
2022/12/05 01:40:40;;;;;;;;;;;;;;;;;;5034449;28;20007;-94
2022/12/05 01:43:06;;;;;;;;;;;;;;;;;;5034134;28;19921;-94
2022/12/05 01:45:35;;;;;;;;;;;;;;;;;;5034120;28;19928;-94
2022/12/05 01:48:01;;;;;;;;;;;;;;;;;;5034093;28;19928;-95
2022/12/05 01:50:27;;;;;;;;;;;;;;;;;;5034398;28;19929;-93
2022/12/05 01:52:53;;;;;;;;;;;;;;;;;;5034108;28;19921;-94
2022/12/05 01:55:19;;;;;;;;;;;;;;;;;;5034173;28;19979;-94
2022/12/05 01:57:44;;;;;;;;;;;;;;;;;;5033847;28;19969;-94
2022/12/05 02:00:10;;;;;;;;;;;;;;;;;;5033739;28;20376;-95
2022/12/05 02:02:37;;;;;;;;;;;;;;;;;;5033663;28;19921;-94
2022/12/05 02:05:03;;;;;;;;;;;;;;;;;;5033861;28;20265;-94
2022/12/05 02:07:29;;;;;;;;;;;;;;;;;;5033255;28;20377;-94
2022/12/05 02:09:55;;;;;;;;;;;;;;;;;;5034246;28;20016;-95
2022/12/05 02:12:21;;;;;;;;;;;;;;;;;;5033751;28;20472;-94
2022/12/05 02:14:47;;;;;;;;;;;;;;;;;;5020009;28;20373;-94
2022/12/05 02:17:13;;;;;;;;;;;;;;;;;;5017334;28;20299;-94
2022/12/05 02:19:39;;;;;;;;;;;;;;;;;;5016896;28;19921;-94
2022/12/05 02:22:05;;;;;;;;;;;;;;;;;;5017016;28;19922;-94
2022/12/05 02:24:30;;;;;;;;;;;;;;;;;;5017097;28;20415;-93
2022/12/05 02:26:59;;;;;;;;;;;;;;;;;;5016726;28;19929;-93
2022/12/05 02:29:25;;;;;;;;;;;;;;;;;;5016309;28;19928;-93
2022/12/05 02:31:51;;;;;;;;;;;;;;;;;;5016348;28;19929;-95
2022/12/05 02:34:17;;;;;;;;;;;;;;;;;;5016810;28;19987;-94
2022/12/05 02:36:43;;;;;;;;;;;;;;;;;;5017159;28;20016;-93
2022/12/05 02:39:09;;;;;;;;;;;;;;;;;;5017103;28;20360;-94
2022/12/05 02:41:35;;;;;;;;;;;;;;;;;;5016928;28;19961;-93
2022/12/05 02:44:01;;;;;;;;;;;;;;;;;;5016963;28;20276;-94
2022/12/05 02:46:26;;;;;;;;;;;;;;;;;;5016984;28;20365;-93
2022/12/05 02:48:52;;;;;;;;;;;;;;;;;;5016824;28;20015;-93
2022/12/05 02:51:21;;;;;;;;;;;;;;;;;;5016364;28;19940;-94
2022/12/05 02:53:47;;;;;;;;;;;;;;;;;;5016289;28;20294;-93
2022/12/05 02:56:13;;;;;;;;;;;;;;;;;;5032805;28;20293;-94
2022/12/05 02:58:39;;;;;;;;;;;;;;;;;;5016000;28;19925;-94
2022/12/05 03:01:05;;;;;;;;;;;;;;;;;;5015960;28;19921;-93
2022/12/05 03:03:31;;;;;;;;;;;;;;;;;;5016563;28;19927;-94
2022/12/05 03:05:57;;;;;;;;;;;;;;;;;;5016034;28;19920;-93
2022/12/05 03:08:23;;;;;;;;;;;;;;;;;;5016181;28;20281;-94
2022/12/05 03:10:49;;;;;;;;;;;;;;;;;;5015726;28;20358;-94
2022/12/05 03:13:15;;;;;;;;;;;;;;;;;;5019266;28;19975;-94
2022/12/05 03:15:43;;;;;;;;;;;;;;;;;;5035520;28;20597;-93
2022/12/05 03:18:09;;;;;;;;;;;;;;;;;;5034702;28;20094;-94
2022/12/05 03:20:35;;;;;;;;;;;;;;;;;;5035376;28;19966;-93
2022/12/05 03:23:01;;;;;;;;;;;;;;;;;;5035477;28;19928;-94
2022/12/05 03:25:29;;;;;;;;;;;;;;;;;;5035862;28;20019;-93
2022/12/05 03:27:55;;;;;;;;;;;;;;;;;;5035222;28;19925;-94
2022/12/05 03:30:21;;;;;;;;;;;;;;;;;;5035327;28;20016;-94
2022/12/05 03:32:47;;;;;;;;;;;;;;;;;;5035201;28;19921;-94
2022/12/05 03:35:13;;;;;;;;;;;;;;;;;;5034911;28;19925;-94
2022/12/05 03:37:39;;;;;;;;;;;;;;;;;;5035348;28;19966;-94
2022/12/05 03:40:06;;;;;;;;;;;;;;;;;;5035334;28;19924;-93
2022/12/05 03:42:32;;;;;;;;;;;;;;;;;;5035108;28;19927;-93
2022/12/05 03:44:58;;;;;;;;;;;;;;;;;;5035269;28;19920;-93
2022/12/05 03:47:24;;;;;;;;;;;;;;;;;;5034924;28;20009;-93
2022/12/05 03:49:50;;;;;;;;;;;;;;;;;;5034670;28;19958;-94
2022/12/05 03:52:15;;;;;;;;;;;;;;;;;;5034702;28;19925;-94
2022/12/05 03:54:42;;;;;;;;;;;;;;;;;;5035371;28;20272;-94
2022/12/05 03:57:08;;;;;;;;;;;;;;;;;;5034781;28;19924;-94
2022/12/05 03:59:34;;;;;;;;;;;;;;;;;;5035014;28;19921;-94
2022/12/05 04:02:00;;;;;;;;;;;;;;;;;;5035290;28;19925;-95
2022/12/05 04:04:26;;;;;;;;;;;;;;;;;;5035546;28;19921;-93
2022/12/05 04:06:52;;;;;;;;;;;;;;;;;;5035089;28;19944;-93
2022/12/05 04:09:18;;;;;;;;;;;;;;;;;;5035103;28;19974;-94
2022/12/05 04:11:44;;;;;;;;;;;;;;;;;;5034448;28;19995;-93
2022/12/05 04:14:10;;;;;;;;;;;;;;;;;;5023430;28;19929;-93
2022/12/05 04:19:21;;;;;;;;;;;;;;;;;;5015452;28;20354;-94
2022/12/05 04:21:47;;;;;;;;;;;;;;;;;;5015318;28;19922;-94
2022/12/05 04:26:57;;;;;;;;;;;;;;;;;;5014581;28;19921;-92
2022/12/05 04:29:23;;;;;;;;;;;;;;;;;;5016382;28;19928;-93
2022/12/05 04:31:49;;;;;;;;;;;;;;;;;;5019138;28;19929;-94
2022/12/05 04:34:15;;;;;;;;;;;;;;;;;;5019163;28;19921;-93
2022/12/05 04:36:41;;;;;;;;;;;;;;;;;;5018977;28;19932;-93
2022/12/05 04:39:08;;;;;;;;;;;;;;;;;;5018918;28;19921;-93
2022/12/05 04:41:34;;;;;;;;;;;;;;;;;;5018370;28;19975;-94
2022/12/05 04:44:00;;;;;;;;;;;;;;;;;;5019054;28;20241;-92
2022/12/05 04:46:26;;;;;;;;;;;;;;;;;;5019222;28;20367;-92
2022/12/05 04:48:52;;;;;;;;;;;;;;;;;;5018761;28;19921;-93
2022/12/05 04:51:18;;;;;;;;;;;;;;;;;;5018381;28;19929;-93
2022/12/05 04:53:44;;;;;;;;;;;;;;;;;;5018912;28;19987;-93
2022/12/05 04:56:10;;;;;;;;;;;;;;;;;;5018710;28;20279;-93
2022/12/05 04:58:36;;;;;;;;;;;;;;;;;;5018741;28;20279;-93
2022/12/05 05:01:02;;;;;;;;;;;;;;;;;;5018461;28;20011;-93
2022/12/05 05:03:28;;;;;;;;;;;;;;;;;;5018705;28;20383;-93
2022/12/05 05:05:54;;;;;;;;;;;;;;;;;;5018976;28;20371;-93
2022/12/05 05:08:20;;;;;;;;;;;;;;;;;;5018333;28;19947;-93
2022/12/05 05:10:46;;;;;;;;;;;;;;;;;;5018320;28;19924;-93
2022/12/05 05:13:11;;;;;;;;;;;;;;;;;;5021817;28;20367;-92
2022/12/05 05:15:37;;;;;;;;;;;;;;;;;;5038115;28;20027;-93
2022/12/05 05:18:03;;;;;;;;;;;;;;;;;;5037499;28;19921;-92
2022/12/05 05:20:29;;;;;;;;;;;;;;;;;;5037661;28;20368;-93
2022/12/05 05:22:55;;;;;;;;;;;;;;;;;;5038087;28;19988;-93
2022/12/05 05:25:21;;;;;;;;;;;;;;;;;;5038476;28;19920;-93
2022/12/05 05:27:48;;;;;;;;;;;;;;;;;;5037517;28;19967;-94
2022/12/05 05:30:13;;;;;;;;;;;;;;;;;;5038739;28;19921;-93
2022/12/05 05:32:39;;;;;;;;;;;;;;;;;;5038451;28;19925;-93
2022/12/05 05:35:05;;;;;;;;;;;;;;;;;;5037955;28;19971;-94
2022/12/05 05:37:31;;;;;;;;;;;;;;;;;;5037766;28;20390;-93
2022/12/05 05:39:57;;;;;;;;;;;;;;;;;;5037559;28;20368;-94
2022/12/05 05:42:26;;;;;;;;;;;;;;;;;;5036487;28;19920;-92
2022/12/05 05:44:52;;;;;;;;;;;;;;;;;;5037326;28;19971;-94
2022/12/05 05:47:18;;;;;;;;;;;;;;;;;;5037318;28;19920;-94
2022/12/05 05:49:44;;;;;;;;;;;;;;;;;;5037353;28;20011;-94
2022/12/05 05:52:10;;;;;;;;;;;;;;;;;;5036843;28;19929;-94
2022/12/05 05:54:36;;;;;;;;;;;;;;;;;;5037754;28;19966;-94
2022/12/05 05:57:02;;;;;;;;;;;;;;;;;;5036990;28;20020;-93
2022/12/05 05:59:28;;;;;;;;;;;;;;;;;;5036795;28;19982;-93
2022/12/05 06:01:53;;;;;;;;;;;;;;;;;;5036788;28;19927;-94
2022/12/05 06:04:19;;;;;;;;;;;;;;;;;;5037069;28;20002;-94
2022/12/05 06:06:45;;;;;;;;;;;;;;;;;;5037241;28;19920;-93
2022/12/05 06:09:11;;;;;;;;;;;;;;;;;;5037116;28;19925;-94
2022/12/05 06:11:37;;;;;;;;;;;;;;;;;;5036849;28;19924;-93
2022/12/05 06:14:03;;;;;;;;;;;;;;;;;;5033390;28;19979;-93
2022/12/05 06:16:29;;;;;;;;;;;;;;;;;;5033474;28;20041;-93
2022/12/05 06:18:55;;;;;;;;;;;;;;;;;;5033850;28;19973;-94
2022/12/05 06:21:21;;;;;;;;;;;;;;;;;;5033393;28;20434;-91
2022/12/05 06:23:47;;;;;;;;;;;;;;;;;;5033648;28;19928;-95
2022/12/05 06:26:13;;;;;;;;;;;;;;;;;;5033759;28;19921;-91
2022/12/05 06:28:43;;;;;;;;;;;;;;;;;;5033087;28;19921;-94
2022/12/05 06:31:09;;;;;;;;;;;;;;;;;;5033074;28;20335;-93
2022/12/05 06:33:35;;;;;;;;;;;;;;;;;;5033822;28;19922;-92
2022/12/05 06:36:00;;;;;;;;;;;;;;;;;;5033276;28;20368;-93
2022/12/05 06:38:26;;;;;;;;;;;;;;;;;;5033119;28;19921;-92
2022/12/05 06:40:53;;;;;;;;;;;;;;;;;;5033038;28;19921;-92
2022/12/05 06:43:19;;;;;;;;;;;;;;;;;;5032897;28;20377;-91
2022/12/05 06:45:44;;;;;;;;;;;;;;;;;;5048850;28;19921;-92
2022/12/05 06:48:10;;;;;;;;;;;;;;;;;;5032883;28;19921;-92
2022/12/05 06:50:36;;;;;;;;;;;;;;;;;;5032670;28;19995;-91
2022/12/05 06:53:02;;;;;;;;;;;;;;;;;;5032910;28;19921;-92
2022/12/05 06:55:28;;;;;;;;;;;;;;;;;;5032771;28;19928;-91
2022/12/05 06:57:54;;;;;;;;;;;;;;;;;;5032836;28;20372;-91
2022/12/05 07:03:05;;;;;;;;;;;;;;;;;;5032185;28;19968;-91
2022/12/05 07:05:31;;;;;;;;;;;;;;;;;;5032308;28;20269;-91
2022/12/05 07:07:57;;;;;;;;;;;;;;;;;;5032099;28;19920;-91
2022/12/05 07:10:23;;;;;;;;;;;;;;;;;;5032127;28;19976;-90
2022/12/05 07:12:48;;;;;;;;;;;;;;;;;;5032133;28;20432;-90
2022/12/05 07:15:14;;;;;;;;;;;;;;;;;;5035820;28;19921;-90
2022/12/05 07:17:40;;;;;;;;;;;;;;;;;;5035469;28;20410;-90
2022/12/05 07:20:06;;;;;;;;;;;;;;;;;;5035208;28;19984;-90
2022/12/05 07:22:32;;;;;;;;;;;;;;;;;;5034998;28;20015;-90
2022/12/05 07:25:01;;;;;;;;;;;;;;;;;;5035179;28;19974;-90
2022/12/05 07:27:27;;;;;;;;;;;;;;;;;;5035190;28;20406;-89
2022/12/05 07:29:53;;;;;;;;;;;;;;;;;;5035289;28;19928;-90
2022/12/05 07:32:19;;;;;;;;;;;;;;;;;;5034776;28;19925;-89
2022/12/05 07:34:45;;;;;;;;;;;;;;;;;;5034971;28;19921;-89
2022/12/05 07:37:12;;;;;;;;;;;;;;;;;;5035042;28;20414;-88
2022/12/05 07:39:38;;;;;;;;;;;;;;;;;;5034708;28;19967;-89
2022/12/05 07:42:04;;;;;;;;;;;;;;;;;;5034775;28;20376;-89
2022/12/05 07:44:30;;;;;;;;;;;;;;;;;;5034926;28;19967;-89
2022/12/05 07:46:56;;;;;;;;;;;;;;;;;;5035177;28;19921;-90
2022/12/05 07:49:22;;;;;;;;;;;;;;;;;;5034784;28;19920;-91
2022/12/05 07:51:48;;;;;;;;;;;;;;;;;;5034297;28;19928;-90
2022/12/05 07:54:15;;;;;;;;;;;;;;;;;;5035248;28;19994;-90
2022/12/05 07:56:41;;;;;;;;;;;;;;;;;;5034783;28;19921;-91
2022/12/05 07:59:07;;;;;;;;;;;;;;;;;;5034909;28;20422;-93
2022/12/05 08:01:33;;;;;;;;;;;;;;;;;;5034817;28;19928;-92
2022/12/05 08:03:59;;;;;;;;;;;;;;;;;;5034055;28;19921;-91
2022/12/05 08:06:25;;;;;;;;;;;;;;;;;;5034281;28;19964;-91
2022/12/05 08:08:51;;;;;;;;;;;;;;;;;;5034686;28;19921;-92
2022/12/05 08:11:17;;;;;;;;;;;;;;;;;;5034070;28;20368;-90
2022/12/05 08:13:42;;;;;;;;;;;;;;;;;;5031858;28;19925;-91
2022/12/05 08:16:08;;;;;;;;;;;;;;;;;;5031306;28;19922;-90
2022/12/05 08:18:34;;;;;;;;;;;;;;;;;;5031221;28;19933;-90
2022/12/05 08:21:00;;;;;;;;;;;;;;;;;;5030921;28;19921;-89
2022/12/05 08:23:26;;;;;;;;;;;;;;;;;;5030951;28;20434;-89
2022/12/05 08:25:52;;;;;;;;;;;;;;;;;;5030874;28;19928;-89
2022/12/05 08:28:18;;;;;;;;;;;;;;;;;;5030726;28;19921;-90
2022/12/05 08:30:44;;;;;;;;;;;;;;;;;;5030693;28;20322;-88
2022/12/05 08:33:10;;;;;;;;;;;;;;;;;;5030827;28;20418;-90
2022/12/05 08:35:39;;;;;;;;;;;;;;;;;;5030740;28;20438;-90
2022/12/05 08:38:05;;;;;;;;;;;;;;;;;;5030704;28;20015;-91
2022/12/05 08:40:30;;;;;;;;;;;;;;;;;;5029341;28;19925;-92
2022/12/05 08:42:56;;;;;;;;;;;;;;;;;;5014257;28;19921;-91
2022/12/05 08:45:22;;;;;;;;;;;;;;;;;;5014016;28;19921;-90
2022/12/05 08:47:48;;;;;;;;;;;;;;;;;;5013950;28;19921;-90
2022/12/05 08:50:14;;;;;;;;;;;;;;;;;;5030746;28;20036;-92
2022/12/05 08:52:40;;;;;;;;;;;;;;;;;;5010331;28;20438;-90
2022/12/05 08:55:06;;;;;;;;;;;;;;;;;;5009254;28;19929;-92
2022/12/05 08:57:32;;;;;;;;;;;;;;;;;;5011529;28;19922;-91
2022/12/05 08:59:58;;;;;;;;;;;;;;;;;;5011021;28;20399;-91
2022/12/05 09:02:24;;;;;;;;;;;;;;;;;;5011124;28;19980;-91
2022/12/05 09:04:50;;;;;;;;;;;;;;;;;;5010880;28;19933;-93
2022/12/05 09:07:16;;;;;;;;;;;;;;;;;;5010602;28;20433;-91
2022/12/05 09:09:42;;;;;;;;;;;;;;;;;;5010935;28;19976;-91
2022/12/05 09:12:08;;;;;;;;;;;;;;;;;;5010716;28;20419;-91
2022/12/05 09:14:34;;;;;;;;;;;;;;;;;;5013657;28;19925;-91
2022/12/05 09:17:01;;;;;;;;;;;;;;;;;;5016320;28;19928;-90
2022/12/05 09:19:27;;;;;;;;;;;;;;;;;;5017798;28;19975;-93
2022/12/05 09:21:55;;;;;;;;;;;;;;;;;;5001630;28;20452;-92
2022/12/05 09:24:22;;;;;;;;;;;;;;;;;;5001779;28;19921;-91
2022/12/05 09:26:47;;;;;;;;;;;;;;;;;;5001205;28;19921;-92
2022/12/05 09:29:15;;;;;;;;;;;;;;;;;;5001559;28;19921;-93
2022/12/05 09:31:44;;;;;;;;;;;;;;;;;;5000853;28;19931;-91
2022/12/05 09:34:12;;;;;;;;;;;;;;;;;;5001035;28;19929;-90
2022/12/05 09:36:38;;;;;;;;;;;;;;;;;;5000609;28;19925;-89
2022/12/05 09:39:04;;;;;;;;;;;;;;;;;;5017420;28;19928;-90
2022/12/05 09:44:14;;;;;;;;;;;;;;;;;;5017223;28;19921;-89
2022/12/05 09:46:40;;;;;;;;;;;;;;;;;;5017157;28;19925;-90
2022/12/05 09:49:06;;;;;;;;;;;;;;;;;;5000745;28;19921;-91
2022/12/05 09:51:32;;;;;;;;;;;;;;;;;;5000772;28;19925;-90
2022/12/05 09:53:58;;;;;;;;;;;;;;;;;;5016614;28;19921;-90
2022/12/05 09:56:26;;;;;;;;;;;;;;;;;;5016826;28;20047;-91
2022/12/05 09:58:52;;;;;;;;;;;;;;;;;;5000952;28;20276;-90
2022/12/05 10:01:18;;;;;;;;;;;;;;;;;;5000676;28;20054;-90
2022/12/05 10:03:44;;;;;;;;;;;;;;;;;;5000548;28;19921;-90
2022/12/05 10:06:10;;;;;;;;;;;;;;;;;;5015661;28;19925;-91
2022/12/05 10:08:39;;;;;;;;;;;;;;;;;;5017948;28;20316;-91
2022/12/05 10:11:05;;;;;;;;;;;;;;;;;;4987316;28;19933;-92
2022/12/05 10:13:31;;;;;;;;;;;;;;;;;;5000287;28;19925;-92
2022/12/05 10:15:57;;;;;;;;;;;;;;;;;;4983361;28;19922;-92
2022/12/05 10:18:23;;;;;;;;;;;;;;;;;;4981468;28;20460;-92
2022/12/05 10:20:49;;;;;;;;;;;;;;;;;;4980956;28;19921;-91
2022/12/05 10:25:54;;;;;;;;;;;;;;;;;;5049953;23;19961;-93
2022/12/05 10:28:23;;;;;;;;;;;;;;;;;;4958677;28;19922;-94
2022/12/05 10:30:48;;;;;;;;;;;;;;;;;;4958100;28;19938;-93
2022/12/05 10:33:14;;;;;;;;;;;;;;;;;;4974624;28;20099;-93
2022/12/05 10:35:40;;;;;;;;;;;;;;;;;;4975155;28;20009;-95
2022/12/05 10:38:06;;;;;;;;;;;;;;;;;;4974418;28;19922;-92
2022/12/05 10:40:32;;;;;;;;;;;;;;;;;;4974195;28;19954;-91
2022/12/05 10:42:58;;;;;;;;;;;;;;;;;;4974023;28;19922;-93
2022/12/05 10:45:24;;;;;;;;;;;;;;;;;;4973851;28;20024;-91
2022/12/05 10:47:53;;;;;;;;;;;;;;;;;;4973942;28;20362;-91
2022/12/05 10:50:19;;;;;;;;;;;;;;;;;;4974624;28;19926;-92
2022/12/05 10:52:45;;;;;;;;;;;;;;;;;;4990432;28;19926;-93
2022/12/05 10:55:11;;;;;;;;;;;;;;;;;;4976285;28;20170;-96
2022/12/05 10:57:37;;;;;;;;;;;;;;;;;;4978893;28;19926;-94
2022/12/05 11:00:03;;;;;;;;;;;;;;;;;;4979233;28;19935;-92
2022/12/05 11:02:32;;;;;;;;;;;;;;;;;;4997421;28;19913;-94
2022/12/05 11:04:58;;;;;;;;;;;;;;;;;;4987498;28;20380;-94
2022/12/05 11:07:31;;;;;;;;;;;;;;;;;;4984392;28;19961;-95
2022/12/05 11:10:02;;;;;;;;;;;;;;;;;;4994724;28;19991;-94
2022/12/05 11:12:27;;;;;;;;;;;;;;;;;;4986688;28;19930;-92
2022/12/05 11:14:53;;;;;;;;;;;;;;;;;;4978507;28;19922;-93
2022/12/05 11:17:19;;;;;;;;;;;;;;;;;;4974915;28;19926;-92
2022/12/05 11:19:45;;;;;;;;;;;;;;;;;;4975211;28;19922;-91
2022/12/05 11:22:11;;;;;;;;;;;;;;;;;;4991742;28;19929;-91
2022/12/05 11:24:37;;;;;;;;;;;;;;;;;;4994888;28;19937;-93
2022/12/05 11:27:03;;;;;;;;;;;;;;;;;;4977054;28;19922;-93
2022/12/05 11:29:29;;;;;;;;;;;;;;;;;;4973687;28;20061;-93
2022/12/05 11:31:55;;;;;;;;;;;;;;;;;;4973581;28;19977;-94
2022/12/05 11:34:21;;;;;;;;;;;;;;;;;;4973690;28;19961;-93
2022/12/05 11:36:47;;;;;;;;;;;;;;;;;;4972972;28;19922;-92
2022/12/05 11:39:13;;;;;;;;;;;;;;;;;;4972098;28;20003;-91
2022/12/05 11:41:39;;;;;;;;;;;;;;;;;;4972922;28;19926;-93
2022/12/05 11:44:05;;;;;;;;;;;;;;;;;;4973064;28;19986;-93
2022/12/05 11:46:32;;;;;;;;;;;;;;;;;;4972820;28;20009;-89
2022/12/05 11:48:58;;;;;;;;;;;;;;;;;;4972735;28;19929;-91
2022/12/05 11:51:24;;;;;;;;;;;;;;;;;;4972593;28;19926;-89
2022/12/05 11:53:50;;;;;;;;;;;;;;;;;;4972818;28;20012;-94
2022/12/05 11:56:16;;;;;;;;;;;;;;;;;;4972428;28;19934;-92
2022/12/05 11:58:42;;;;;;;;;;;;;;;;;;4956370;28;19944;-91
2022/12/05 12:01:08;;;;;;;;;;;;;;;;;;4956576;28;20281;-91
2022/12/05 12:03:34;;;;;;;;;;;;;;;;;;4956121;28;19929;-91
2022/12/05 12:06:00;;;;;;;;;;;;;;;;;;4956224;28;19922;-90
2022/12/05 12:08:26;;;;;;;;;;;;;;;;;;4956202;28;19948;-89
2022/12/05 12:10:52;;;;;;;;;;;;;;;;;;4956006;28;19953;-90
2022/12/05 12:13:18;;;;;;;;;;;;;;;;;;4956060;28;19922;-90
2022/12/05 12:15:45;;;;;;;;;;;;;;;;;;4956104;28;19929;-91
2022/12/05 12:18:11;;;;;;;;;;;;;;;;;;4955974;28;19929;-91
2022/12/05 12:20:37;;;;;;;;;;;;;;;;;;4955990;28;19922;-91
2022/12/05 12:23:03;;;;;;;;;;;;;;;;;;4955907;28;19973;-90
2022/12/05 12:25:29;;;;;;;;;;;;;;;;;;4967294;28;19930;-90
2022/12/05 12:27:55;;;;;;;;;;;;;;;;;;4972140;28;19926;-91
2022/12/05 12:30:21;;;;;;;;;;;;;;;;;;4971880;28;19989;-90
2022/12/05 12:32:47;;;;;;;;;;;;;;;;;;4988125;28;19926;-92
2022/12/05 12:35:12;;;;;;;;;;;;;;;;;;4988890;28;19929;-96
2022/12/05 12:37:42;;;;;;;;;;;;;;;;;;4987952;28;20227;-94
2022/12/05 12:40:08;;;;;;;;;;;;;;;;;;4972419;28;19922;-93
2022/12/05 12:42:36;;;;;;;;;;;;;;;;;;4972060;28;20081;-92
2022/12/05 12:45:04;;;;;;;;;;;;;;;;;;4955847;28;19976;-92
2022/12/05 12:47:29;;;;;;;;;;;;;;;;;;4972113;28;19972;-91
2022/12/05 12:49:55;;;;;;;;;;;;;;;;;;4972755;28;19926;-92
2022/12/05 12:52:24;;;;;;;;;;;;;;;;;;4975247;28;19926;-92
2022/12/05 12:54:50;;;;;;;;;;;;;;;;;;4975949;28;19922;-91
2022/12/05 12:57:19;;;;;;;;;;;;;;;;;;4992098;28;20271;-92
2022/12/05 12:59:45;;;;;;;;;;;;;;;;;;4975749;28;19922;-92
2022/12/05 13:02:10;;;;;;;;;;;;;;;;;;4975707;28;19922;-92
2022/12/05 13:04:40;;;;;;;;;;;;;;;;;;4975259;28;19926;-92
2022/12/05 13:07:06;;;;;;;;;;;;;;;;;;4975765;28;20394;-92
2022/12/05 13:09:32;;;;;;;;;;;;;;;;;;4975840;28;19998;-92
2022/12/05 13:11:58;;;;;;;;;;;;;;;;;;4975470;28;19933;-92
2022/12/05 13:14:25;;;;;;;;;;;;;;;;;;4975755;28;19922;-92
2022/12/05 13:16:51;;;;;;;;;;;;;;;;;;4975321;28;20373;-95
2022/12/05 13:19:18;;;;;;;;;;;;;;;;;;4959548;28;19972;-93
2022/12/05 13:21:44;;;;;;;;;;;;;;;;;;4975468;28;19926;-90
2022/12/05 13:24:09;;;;;;;;;;;;;;;;;;4994680;28;20439;-91
2022/12/05 13:26:35;;;;;;;;;;;;;;;;;;4978467;28;20373;-91
2022/12/05 13:29:04;;;;;;;;;;;;;;;;;;4978457;28;20037;-91
2022/12/05 13:31:30;;;;;;;;;;;;;;;;;;4978408;28;19925;-90
2022/12/05 13:33:56;;;;;;;;;;;;;;;;;;4978567;28;19984;-91
2022/12/05 13:44:36;;;;;;;;;;;;;;;;;;4978312;28;20337;-91
2022/12/05 13:47:06;;;;;;;;;;;;;;;;;;4978255;28;20024;-91
2022/12/05 13:49:32;;;;;;;;;;;;;;;;;;4978017;28;20447;-91
2022/12/05 13:51:57;;;;;;;;;;;;;;;;;;4977961;28;19929;-91
2022/12/05 13:54:24;;;;;;;;;;;;;;;;;;4978129;28;19922;-90
2022/12/05 13:56:51;;;;;;;;;;;;;;;;;;4977791;28;19922;-91
2022/12/05 13:59:17;;;;;;;;;;;;;;;;;;4978148;28;20324;-91
2022/12/05 14:01:43;;;;;;;;;;;;;;;;;;4977052;28;19928;-91
2022/12/05 14:04:09;;;;;;;;;;;;;;;;;;4977673;28;19926;-91
2022/12/05 14:06:36;;;;;;;;;;;;;;;;;;4977664;28;19929;-91
2022/12/05 14:09:03;;;;;;;;;;;;;;;;;;4977666;28;19922;-91
2022/12/05 14:11:28;;;;;;;;;;;;;;;;;;4977408;28;19929;-91
2022/12/05 14:13:55;;;;;;;;;;;;;;;;;;4977869;28;19926;-90
2022/12/05 14:16:20;;;;;;;;;;;;;;;;;;4977672;28;19921;-91
2022/12/05 14:18:47;;;;;;;;;;;;;;;;;;4977591;28;20281;-91
2022/12/05 14:21:14;;;;;;;;;;;;;;;;;;4977419;28;19921;-91
2022/12/05 14:23:41;;;;;;;;;;;;;;;;;;4977125;28;19973;-91
2022/12/05 14:26:07;;;;;;;;;;;;;;;;;;4958070;28;19931;-91
2022/12/05 14:28:34;;;;;;;;;;;;;;;;;;4958013;28;19982;-91
2022/12/05 14:31:00;;;;;;;;;;;;;;;;;;4958042;28;19926;-91
2022/12/05 14:33:26;;;;;;;;;;;;;;;;;;4958117;28;19929;-91
2022/12/05 14:35:52;;;;;;;;;;;;;;;;;;4958012;28;19928;-91
2022/12/05 14:38:18;;;;;;;;;;;;;;;;;;4957851;28;20305;-91
2022/12/05 14:40:43;;;;;;;;;;;;;;;;;;4957593;28;20393;-90
2022/12/05 14:43:09;;;;;;;;;;;;;;;;;;4957821;28;19926;-91
2022/12/05 14:45:35;;;;;;;;;;;;;;;;;;4957737;28;20081;-91
2022/12/05 14:48:02;;;;;;;;;;;;;;;;;;4957818;28;19980;-91
2022/12/05 14:50:28;;;;;;;;;;;;;;;;;;4957691;28;19921;-91
2022/12/05 14:52:53;;;;;;;;;;;;;;;;;;4957543;28;20340;-90
2022/12/05 14:55:21;;;;;;;;;;;;;;;;;;4957352;28;19926;-91
2022/12/05 14:57:47;;;;;;;;;;;;;;;;;;4957343;28;19929;-90
2022/12/05 15:00:13;;;;;;;;;;;;;;;;;;4957553;28;19926;-91
2022/12/05 15:02:39;;;;;;;;;;;;;;;;;;4957177;28;19926;-91
2022/12/05 15:05:05;;;;;;;;;;;;;;;;;;4957335;28;19923;-90
2022/12/05 15:07:31;;;;;;;;;;;;;;;;;;4957445;28;19922;-91
2022/12/05 15:09:57;;;;;;;;;;;;;;;;;;4957274;28;19932;-91
2022/12/05 15:12:23;;;;;;;;;;;;;;;;;;4957185;28;20234;-91
2022/12/05 15:14:49;;;;;;;;;;;;;;;;;;4957261;28;19926;-91
2022/12/05 15:17:15;;;;;;;;;;;;;;;;;;4957790;28;19922;-91
2022/12/05 15:19:41;;;;;;;;;;;;;;;;;;4957246;28;19923;-91
2022/12/05 15:22:07;;;;;;;;;;;;;;;;;;4957913;28;19922;-91
2022/12/05 15:24:33;;;;;;;;;;;;;;;;;;4964500;28;19930;-91
2022/12/05 15:26:59;;;;;;;;;;;;;;;;;;4993739;28;19976;-90
2022/12/05 15:29:25;;;;;;;;;;;;;;;;;;4977760;28;19929;-91
2022/12/05 15:31:52;;;;;;;;;;;;;;;;;;4978108;28;19981;-91
2022/12/05 15:34:21;;;;;;;;;;;;;;;;;;4996931;28;19949;-91
2022/12/05 15:36:47;;;;;;;;;;;;;;;;;;4998191;28;19922;-91
2022/12/05 15:39:13;;;;;;;;;;;;;;;;;;5010837;28;19964;-90
2022/12/05 15:41:38;;;;;;;;;;;;;;;;;;4982010;28;19925;-90
2022/12/05 15:44:05;;;;;;;;;;;;;;;;;;4976226;28;19922;-90
2022/12/05 15:46:31;;;;;;;;;;;;;;;;;;4976123;28;19929;-90
2022/12/05 15:48:58;;;;;;;;;;;;;;;;;;4976222;28;20285;-90
2022/12/05 15:51:24;;;;;;;;;;;;;;;;;;4975625;28;19926;-90
2022/12/05 15:53:50;;;;;;;;;;;;;;;;;;4975844;28;19926;-90
2022/12/05 15:56:16;;;;;;;;;;;;;;;;;;4975809;28;20337;-90
2022/12/05 15:58:42;;;;;;;;;;;;;;;;;;4992052;28;19969;-90
2022/12/05 16:01:08;;;;;;;;;;;;;;;;;;4975630;28;19921;-90
2022/12/05 16:03:33;;;;;;;;;;;;;;;;;;4992314;28;20021;-90
2022/12/05 16:05:59;;;;;;;;;;;;;;;;;;4975848;28;20381;-90
2022/12/05 16:08:34;;;;;;;;;;;;;;;;;;4991832;28;20004;-90
2022/12/05 16:11:00;;;;;;;;;;;;;;;;;;4975528;28;19925;-90
2022/12/05 16:13:26;;;;;;;;;;;;;;;;;;4975652;28;19928;-90
2022/12/05 16:15:52;;;;;;;;;;;;;;;;;;4991792;28;19922;-90
2022/12/05 16:18:17;;;;;;;;;;;;;;;;;;4992023;28;19937;-90
2022/12/05 16:20:43;;;;;;;;;;;;;;;;;;4991934;28;20384;-89
2022/12/05 16:23:09;;;;;;;;;;;;;;;;;;4975737;28;19976;-90
2022/12/05 16:25:35;;;;;;;;;;;;;;;;;;4991387;28;19926;-90
2022/12/05 16:28:01;;;;;;;;;;;;;;;;;;4975435;28;20044;-90
2022/12/05 16:30:27;;;;;;;;;;;;;;;;;;4975477;28;20218;-90
2022/12/05 16:32:53;;;;;;;;;;;;;;;;;;4975326;28;19930;-90
2022/12/05 16:35:19;;;;;;;;;;;;;;;;;;4975514;28;19925;-90
2022/12/05 16:37:45;;;;;;;;;;;;;;;;;;4975786;28;19950;-89
2022/12/05 16:40:11;;;;;;;;;;;;;;;;;;4975343;28;19926;-89
2022/12/05 16:42:38;;;;;;;;;;;;;;;;;;4975412;28;19922;-89
2022/12/05 16:45:04;;;;;;;;;;;;;;;;;;4975472;28;20012;-89
2022/12/05 16:47:30;;;;;;;;;;;;;;;;;;4975298;28;20376;-90
2022/12/05 16:49:56;;;;;;;;;;;;;;;;;;4975197;28;19922;-89
2022/12/05 16:52:22;;;;;;;;;;;;;;;;;;4975257;28;19925;-89
2022/12/05 16:54:49;;;;;;;;;;;;;;;;;;4975698;28;20304;-90
2022/12/05 16:57:15;;;;;;;;;;;;;;;;;;4975470;28;19967;-90
2022/12/05 16:59:41;;;;;;;;;;;;;;;;;;4975362;28;19926;-90